Time;durP1;ratioP1;P1;durP2;ratioP2;P2;SDS_P1;SDS_P2;PMS_P1;PMS_P2;Temp;Humidity;BMP_temperature;BMP_pressure;BME280_temperature;BME280_humidity;BME280_pressure;Samples;Min_cycle;Max_cycle;Signal;HPM_P1;HPM_P2
2023/03/17 00:01:13;;;;;;;;;3.00;2.00;;;;;22.19;36.04;100466.88;5056587;28;45347;-74
2023/03/17 00:03:40;;;;;;;;;3.33;2.67;;;;;22.14;36.50;100459.53;5057089;28;45429;-74
2023/03/17 00:06:15;;;;;;;;;3.00;3.00;;;;;22.21;36.49;100478.13;5055265;28;45377;-74
2023/03/17 00:08:41;;;;;;;;;2.33;2.00;;;;;22.19;35.97;100477.50;5043748;28;45542;-74
2023/03/17 00:11:16;;;;;;;;;3.00;3.00;;;;;22.20;36.42;100471.16;5056522;28;45310;-74
2023/03/17 00:13:43;;;;;;;;;3.00;3.00;;;;;22.22;36.47;100473.63;5056813;28;45348;-74
2023/03/17 00:16:16;;;;;;;;;3.00;3.00;;;;;22.21;36.30;100470.16;5056542;28;45876;-74
2023/03/17 00:18:42;;;;;;;;;2.67;2.67;;;;;22.22;36.22;100471.00;5055245;28;45541;-74
2023/03/17 00:21:13;;;;;;;;;1.00;1.00;;;;;22.22;35.80;100471.81;5056480;28;45260;-74
2023/03/17 00:23:40;;;;;;;;;4.00;4.00;;;;;22.22;36.22;100469.16;5056756;28;45422;-74
2023/03/17 00:26:05;;;;;;;;;3.00;3.00;;;;;22.22;36.01;100477.13;5056326;28;45481;-74
2023/03/17 00:28:31;;;;;;;;;3.50;3.50;;;;;22.22;36.42;100466.50;5056606;28;46065;-74
2023/03/17 00:30:59;;;;;;;;;2.00;2.00;;;;;22.23;35.76;100468.13;5056420;28;45369;-74
2023/03/17 00:33:28;;;;;;;;;3.00;1.33;;;;;22.23;35.93;100478.75;5056004;28;45551;-74
2023/03/17 00:35:55;;;;;;;;;4.00;4.00;;;;;22.21;35.97;100472.00;5055610;28;45377;-74
2023/03/17 00:38:23;;;;;;;;;3.67;2.00;;;;;22.24;36.21;100476.91;5056173;28;47289;-74
2023/03/17 00:40:49;;;;;;;;;3.33;3.33;;;;;22.24;36.37;100484.88;5050938;28;45478;-73
2023/03/17 00:43:16;;;;;;;;;5.00;3.00;;;;;22.23;36.35;100481.38;5048967;28;45348;-73
2023/03/17 00:45:42;;;;;;;;;2.00;2.00;;;;;22.23;36.47;100477.91;5055945;28;45444;-74
2023/03/17 00:48:18;;;;;;;;;3.67;2.33;;;;;22.14;35.85;100458.69;5055947;28;45356;-74
2023/03/17 00:50:45;;;;;;;;;3.33;2.00;;;;;22.23;35.88;100472.59;5037957;28;45941;-74
2023/03/17 00:53:12;;;;;;;;;4.00;2.00;;;;;22.23;36.53;100472.59;5055993;28;45434;-74
2023/03/17 00:55:39;;;;;;;;;3.00;3.00;;;;;22.24;35.95;100482.22;5056159;28;45460;-74
2023/03/17 00:58:25;;;;;;;;;4.67;4.00;;;;;22.23;36.27;100484.03;5055623;28;46958;-75
2023/03/17 01:00:52;;;;;;;;;4.00;4.00;;;;;22.24;36.22;100482.22;5055857;28;45281;-74
2023/03/17 01:03:18;;;;;;;;;3.00;3.00;;;;;22.25;36.37;100478.56;5055354;28;45337;-73
2023/03/17 01:05:45;;;;;;;;;3.00;3.00;;;;;22.23;36.31;100475.25;5055582;28;45491;-74
2023/03/17 01:08:11;;;;;;;;;6.00;3.67;;;;;22.24;36.46;100463.66;5041860;28;46401;-74
2023/03/17 01:10:36;;;;;;;;;3.00;3.00;;;;;22.21;35.92;100462.22;5055540;28;45488;-74
2023/03/17 01:13:03;;;;;;;;;2.67;2.00;;;;;22.23;36.44;100459.38;5055659;28;45653;-73
2023/03/17 01:15:30;;;;;;;;;4.00;3.00;;;;;22.11;36.52;100443.16;5055848;28;45471;-73
2023/03/17 01:17:57;;;;;;;;;4.00;4.00;;;;;22.23;35.78;100459.38;5054318;28;46323;-74
2023/03/17 01:20:26;;;;;;;;;5.00;4.00;;;;;22.23;36.57;100469.97;5055641;28;45440;-74
2023/03/17 01:22:52;;;;;;;;;2.33;2.33;;;;;22.20;36.14;100475.66;5055575;28;45492;-74
2023/03/17 01:25:18;;;;;;;;;2.67;2.67;;;;;22.25;36.20;100483.88;5055327;28;45429;-74
2023/03/17 01:27:45;;;;;;;;;4.33;4.33;;;;;22.26;36.19;100466.94;5054601;28;45688;-74
2023/03/17 01:30:28;;;;;;;;;4.67;3.00;;;;;22.25;36.54;100460.81;5055134;28;45386;-73
2023/03/17 01:32:55;;;;;;;;;3.00;2.33;;;;;22.27;36.19;100468.59;5055075;28;45643;-73
2023/03/17 01:35:23;;;;;;;;;4.00;4.00;;;;;22.23;36.46;100452.25;5054837;28;45376;-74
2023/03/17 01:37:49;;;;;;;;;6.67;4.33;;;;;22.20;36.47;100460.56;5055263;28;47115;-74
2023/03/17 01:40:18;;;;;;;;;3.67;3.67;;;;;22.27;36.55;100474.72;5055082;28;45305;-74
2023/03/17 01:42:53;;;;;;;;;5.25;5.00;;;;;22.27;36.56;100471.25;5043290;28;45437;-74
2023/03/17 01:45:56;;;;;;;;;5.00;5.00;;;;;22.27;36.36;100465.94;5054701;28;45508;-74
2023/03/17 01:48:23;;;;;;;;;4.00;3.00;;;;;22.19;36.31;100453.63;5055016;28;46364;-74
2023/03/17 01:50:49;;;;;;;;;7.50;4.50;;;;;22.26;36.59;100467.75;5042969;28;45455;-74
2023/03/17 01:53:15;;;;;;;;;6.33;5.00;;;;;22.26;36.18;100461.63;5054994;28;45472;-74
2023/03/17 01:55:44;;;;;;;;;6.00;4.00;;;;;22.23;36.60;100452.25;5055420;28;45383;-74
2023/03/17 01:58:11;;;;;;;;;5.00;5.00;;;;;22.25;36.74;100463.47;5054028;28;46331;-74
2023/03/17 02:00:36;;;;;;;;;4.00;4.00;;;;;22.26;36.12;100465.09;5054564;28;45343;-74
2023/03/17 02:03:03;;;;;;;;;4.00;3.00;;;;;22.26;36.67;100456.34;5054852;28;45310;-74
2023/03/17 02:05:30;;;;;;;;;3.00;3.00;;;;;22.28;36.35;100456.97;5054955;28;45480;-73
2023/03/17 02:07:56;;;;;;;;;4.67;4.00;;;;;22.22;36.64;100447.13;5041189;28;47220;-74
2023/03/17 02:10:25;;;;;;;;;5.33;3.33;;;;;22.31;36.60;100455.75;5055013;28;45410;-74
2023/03/17 02:12:55;;;;;;;;;2.75;2.75;;;;;22.30;36.69;100452.31;5054926;28;45444;-73
2023/03/17 02:15:21;;;;;;;;;4.33;4.00;;;;;22.20;36.35;100431.41;5054277;28;45489;-73
2023/03/17 02:17:48;;;;;;;;;4.00;2.67;;;;;22.30;36.30;100447.00;5054539;28;47117;-73
2023/03/17 02:20:16;;;;;;;;;6.25;4.75;;;;;22.31;36.79;100434.56;5054962;28;45356;-74
2023/03/17 02:22:49;;;;;;;;;4.00;3.00;;;;;22.31;36.91;100443.31;5054648;28;45464;-74
2023/03/17 02:25:16;;;;;;;;;3.25;1.00;;;;;22.31;36.36;100438.03;5054751;28;45341;-74
2023/03/17 02:27:45;;;;;;;;;5.67;4.67;;;;;22.31;37.03;100434.56;5054256;28;46155;-74
2023/03/17 02:30:14;;;;;;;;;6.25;5.00;;;;;22.31;36.72;100422.13;5055754;28;45337;-73
2023/03/17 02:32:39;;;;;;;;;6.67;3.67;;;;;22.31;36.86;100410.69;5058149;28;45266;-74
2023/03/17 02:35:06;;;;;;;;;4.33;3.33;;;;;22.32;37.02;100407.88;5057925;28;45432;-73
2023/03/17 02:37:32;;;;;;;;;6.00;3.00;;;;;22.34;36.92;100402.38;5057956;28;46171;-74
2023/03/17 02:39:59;;;;;;;;;5.33;4.00;;;;;22.34;36.81;100400.53;5057937;28;46005;-74
2023/03/17 02:42:25;;;;;;;;;5.00;3.00;;;;;22.34;36.59;100397.06;5039885;28;46116;-73
2023/03/17 02:44:51;;;;;;;;;9.50;3.50;;;;;22.32;36.71;100397.28;5057530;28;45470;-73
2023/03/17 02:47:17;;;;;;;;;4.25;4.25;;;;;22.36;36.47;100405.63;5057829;28;45829;-74
2023/03/17 02:49:43;;;;;;;;;3.00;3.00;;;;;22.36;36.89;100397.69;5058275;28;45371;-73
2023/03/17 02:52:09;;;;;;;;;5.33;2.67;;;;;22.37;36.87;100394.03;5057364;28;45313;-73
2023/03/17 02:54:34;;;;;;;;;2.00;2.00;;;;;22.35;36.84;100393.41;5050147;28;45576;-73
2023/03/17 02:57:00;;;;;;;;;2.50;2.25;;;;;22.34;36.84;100382.00;5057597;28;46999;-73
2023/03/17 02:59:25;;;;;;;;;3.50;2.25;;;;;22.32;36.71;100373.41;5057813;28;45626;-73
2023/03/17 03:01:51;;;;;;;;;4.50;3.75;;;;;22.32;36.64;100377.91;5057686;28;45410;-74
2023/03/17 03:04:18;;;;;;;;;3.33;3.33;;;;;22.33;36.99;100382.19;5057788;28;45288;-73
2023/03/17 03:06:44;;;;;;;;;3.00;3.00;;;;;22.32;36.89;100381.38;5052585;28;46191;-73
2023/03/17 03:09:10;;;;;;;;;7.25;5.75;;;;;22.32;36.70;100386.66;5049422;28;45524;-73
2023/03/17 03:11:37;;;;;;;;;2.67;2.33;;;;;22.32;36.45;100380.56;5057761;28;45359;-73
2023/03/17 03:14:02;;;;;;;;;5.25;4.00;;;;;22.31;36.99;100381.56;5057431;28;45343;-74
2023/03/17 03:16:28;;;;;;;;;6.33;3.67;;;;;22.21;37.08;100373.94;5057241;28;46395;-73
2023/03/17 03:18:53;;;;;;;;;4.00;3.00;;;;;22.23;36.57;100363.97;5057464;28;45350;-73
2023/03/17 03:21:19;;;;;;;;;5.33;4.00;;;;;22.30;36.55;100391.34;5057495;28;45326;-73
2023/03/17 03:23:44;;;;;;;;;4.00;3.33;;;;;22.31;36.98;100381.56;5057566;28;45314;-74
2023/03/17 03:26:11;;;;;;;;;7.75;4.00;;;;;22.31;36.41;100371.78;5039050;28;45925;-73
2023/03/17 03:28:36;;;;;;;;;5.33;3.00;;;;;22.31;36.53;100376.25;5056468;28;45326;-73
2023/03/17 03:31:01;;;;;;;;;0.33;0.00;;;;;22.30;36.84;100383.41;5057315;28;45378;-73
2023/03/17 03:33:27;;;;;;;;;4.67;3.00;;;;;22.30;36.74;100391.34;5057243;28;45400;-73
2023/03/17 03:35:52;;;;;;;;;3.00;3.00;;;;;22.32;37.06;100407.06;5038379;28;47348;-73
2023/03/17 03:38:18;;;;;;;;;7.67;4.00;;;;;22.31;36.49;100398.28;5057450;28;45353;-73
2023/03/17 03:40:43;;;;;;;;;3.67;3.33;;;;;22.31;36.91;100387.66;5057018;28;45256;-74
2023/03/17 03:43:09;;;;;;;;;4.67;4.00;;;;;22.31;37.00;100392.97;5056915;28;45459;-73
2023/03/17 03:45:35;;;;;;;;;5.33;3.67;;;;;22.30;37.13;100394.00;5056624;28;47077;-73
2023/03/17 03:48:00;;;;;;;;;4.00;4.00;;;;;22.22;37.11;100391.50;5057210;28;45423;-73
2023/03/17 03:50:26;;;;;;;;;2.67;2.67;;;;;22.32;37.18;100399.09;5057047;28;45872;-73
2023/03/17 03:52:51;;;;;;;;;4.00;3.00;;;;;22.21;36.52;100363.34;5057074;28;45429;-73
2023/03/17 03:55:16;;;;;;;;;4.33;3.67;;;;;22.31;37.17;100390.31;5056683;28;45369;-73
2023/03/17 03:57:42;;;;;;;;;4.67;4.33;;;;;22.30;36.79;100391.34;5056714;28;45440;-73
2023/03/17 04:00:08;;;;;;;;;6.00;4.67;;;;;22.31;36.97;100395.63;5056706;28;45591;-73
2023/03/17 04:02:34;;;;;;;;;3.00;3.00;;;;;22.25;36.70;100391.13;5057253;28;45360;-73
2023/03/17 04:05:00;;;;;;;;;4.33;3.33;;;;;22.18;37.23;100406.94;5038591;28;45302;-73
2023/03/17 04:07:25;;;;;;;;;5.00;4.33;;;;;22.29;37.17;100424.16;5046241;28;45359;-73
2023/03/17 04:09:50;;;;;;;;;3.33;3.33;;;;;22.29;36.69;100445.34;5052617;28;45360;-73
2023/03/17 04:12:16;;;;;;;;;4.25;3.00;;;;;22.28;36.54;100441.88;5056544;28;45384;-73
2023/03/17 04:14:43;;;;;;;;;4.00;3.00;;;;;22.28;36.65;100435.75;5056413;28;45596;-74
2023/03/17 04:17:09;;;;;;;;;4.33;2.67;;;;;22.24;36.57;100434.50;5056762;28;45517;-73
2023/03/17 04:19:35;;;;;;;;;4.00;4.00;;;;;22.27;36.71;100434.97;5056461;28;45356;-73
2023/03/17 04:22:00;;;;;;;;;3.00;3.00;;;;;22.24;37.19;100422.09;5056587;28;45435;-73
2023/03/17 04:24:26;;;;;;;;;3.00;3.00;;;;;22.26;36.90;100417.41;5056258;28;45751;-73
2023/03/17 04:26:52;;;;;;;;;2.25;2.00;;;;;22.18;36.56;100389.22;5056183;28;45377;-73
2023/03/17 04:29:18;;;;;;;;;4.25;3.00;;;;;22.24;37.04;100398.25;5056199;28;45400;-74
2023/03/17 04:31:43;;;;;;;;;3.00;3.00;;;;;22.24;36.56;100395.59;5056457;28;45422;-73
2023/03/17 04:34:15;;;;;;;;;3.00;3.00;;;;;22.23;36.50;100396.59;5056273;28;46960;-73
2023/03/17 04:36:41;;;;;;;;;2.00;2.00;;;;;22.23;37.13;100407.19;5055968;28;45440;-73
2023/03/17 04:39:07;;;;;;;;;3.00;3.00;;;;;22.22;36.53;100408.22;5056426;28;45432;-73
2023/03/17 04:41:33;;;;;;;;;5.67;3.67;;;;;22.22;36.68;100394.16;5055842;28;45513;-73
2023/03/17 04:43:58;;;;;;;;;5.33;4.00;;;;;22.21;37.10;100409.22;5055785;28;45993;-74
2023/03/17 04:46:24;;;;;;;;;3.50;3.50;;;;;22.23;36.98;100414.31;5056466;28;45393;-73
2023/03/17 04:48:49;;;;;;;;;5.00;4.00;;;;;22.19;37.05;100408.59;5056239;28;45293;-73
2023/03/17 04:51:15;;;;;;;;;5.25;4.00;;;;;22.17;36.98;100392.88;5056177;28;45264;-73
2023/03/17 04:53:41;;;;;;;;;4.33;4.33;;;;;22.23;36.95;100411.66;5055004;28;46815;-73
2023/03/17 04:56:07;;;;;;;;;3.00;2.67;;;;;22.23;36.44;100409.84;5055454;28;45320;-74
2023/03/17 04:58:32;;;;;;;;;3.00;3.00;;;;;22.23;36.36;100409.84;5056045;28;45265;-73
2023/03/17 05:00:57;;;;;;;;;2.33;2.33;;;;;22.24;36.63;100400.88;5056205;28;45482;-73
2023/03/17 05:03:24;;;;;;;;;4.00;4.00;;;;;22.24;36.89;100400.06;5054807;28;46149;-73
2023/03/17 05:05:50;;;;;;;;;7.00;4.00;;;;;22.20;36.39;100396.16;5055965;28;45395;-73
2023/03/17 05:08:15;;;;;;;;;3.00;3.00;;;;;22.25;36.79;100405.16;5042276;28;45321;-73
2023/03/17 05:10:41;;;;;;;;;2.75;2.75;;;;;22.25;36.76;100407.81;5055500;28;45516;-73
2023/03/17 05:13:06;;;;;;;;;3.67;3.00;;;;;22.24;36.76;100395.59;5055482;28;46144;-74
2023/03/17 05:15:32;;;;;;;;;3.00;2.00;;;;;22.22;36.39;100381.72;5055142;28;45503;-73
2023/03/17 05:17:57;;;;;;;;;3.00;3.00;;;;;22.23;36.92;100382.50;5037257;28;45376;-74
2023/03/17 05:20:22;;;;;;;;;2.00;2.00;;;;;22.25;36.50;100375.22;5056042;28;45333;-73
2023/03/17 05:22:48;;;;;;;;;3.75;3.00;;;;;22.25;36.66;100380.50;5055516;28;45367;-73
2023/03/17 05:25:13;;;;;;;;;2.50;2.25;;;;;22.17;36.91;100370.88;5055080;28;45359;-73
2023/03/17 05:27:39;;;;;;;;;2.67;2.67;;;;;22.22;36.93;100383.53;5055094;28;45381;-73
2023/03/17 05:30:05;;;;;;;;;4.33;4.33;;;;;22.23;37.05;100379.88;5055839;28;45436;-73
2023/03/17 05:32:30;;;;;;;;;4.50;3.00;;;;;22.22;37.02;100378.25;5055321;28;45305;-73
2023/03/17 05:34:56;;;;;;;;;2.00;2.00;;;;;22.22;36.58;100373.78;5055277;28;45233;-73
2023/03/17 05:37:22;;;;;;;;;3.00;3.00;;;;;22.22;36.47;100365.00;5055220;28;45270;-73
2023/03/17 05:39:47;;;;;;;;;4.00;2.00;;;;;22.20;36.46;100345.81;5055420;28;45309;-73
2023/03/17 05:42:12;;;;;;;;;1.00;1.00;;;;;22.17;36.63;100329.28;5054998;28;47273;-74
2023/03/17 05:44:38;;;;;;;;;3.75;2.75;;;;;22.06;37.01;100306.00;5055136;28;45372;-74
2023/03/17 05:47:03;;;;;;;;;2.75;2.75;;;;;22.15;37.04;100320.72;5055441;28;45254;-73
2023/03/17 05:49:29;;;;;;;;;4.25;2.25;;;;;22.11;36.65;100308.88;5055196;28;45368;-73
2023/03/17 05:51:54;;;;;;;;;2.50;2.00;;;;;22.15;36.79;100311.94;5041768;28;45916;-74
2023/03/17 05:54:21;;;;;;;;;3.00;3.00;;;;;22.11;36.59;100311.53;5055350;28;45399;-73
2023/03/17 05:56:47;;;;;;;;;4.00;3.00;;;;;22.15;36.65;100330.47;5055056;28;45463;-73
2023/03/17 05:59:14;;;;;;;;;7.00;4.00;;;;;22.14;36.73;100337.63;5054803;28;45455;-74
2023/03/17 06:01:40;;;;;;;;;3.25;3.00;;;;;22.11;36.93;100348.63;5036556;28;47458;-73
2023/03/17 06:04:05;;;;;;;;;4.00;3.33;;;;;22.16;37.18;100364.75;5056179;28;45562;-73
2023/03/17 06:06:31;;;;;;;;;2.00;2.00;;;;;22.11;37.08;100372.47;5058541;28;45325;-73
2023/03/17 06:08:56;;;;;;;;;3.00;1.50;;;;;22.12;37.21;100371.44;5058650;28;45391;-73
2023/03/17 06:11:22;;;;;;;;;3.00;3.00;;;;;22.12;36.90;100376.72;5058401;28;45294;-73
2023/03/17 06:13:48;;;;;;;;;2.33;2.33;;;;;22.11;36.68;100371.63;5040771;28;45307;-73
2023/03/17 06:16:13;;;;;;;;;3.00;3.00;;;;;22.14;36.56;100377.38;5058362;28;45369;-73
2023/03/17 06:18:39;;;;;;;;;3.00;3.00;;;;;22.13;37.09;100365.13;5058705;28;45387;-73
2023/03/17 06:21:05;;;;;;;;;4.67;3.67;;;;;22.12;36.65;100374.09;5058144;28;46217;-73
2023/03/17 06:23:30;;;;;;;;;3.00;2.33;;;;;22.13;36.62;100378.38;5058483;28;45274;-73
2023/03/17 06:25:56;;;;;;;;;4.00;2.75;;;;;22.14;36.99;100373.91;5058082;28;45454;-73
2023/03/17 06:28:21;;;;;;;;;4.50;2.50;;;;;22.15;36.99;100378.19;5058656;28;45404;-70
2023/03/17 06:30:47;;;;;;;;;3.25;2.75;;;;;22.14;36.56;100393.28;5057115;28;46166;-72
2023/03/17 06:33:12;;;;;;;;;8.00;4.00;;;;;22.14;36.55;100384.50;5057884;28;45353;-72
2023/03/17 06:35:38;;;;;;;;;3.00;3.00;;;;;22.14;36.56;100373.91;5057872;28;45737;-74
2023/03/17 06:38:04;;;;;;;;;1.25;1.25;;;;;22.16;37.00;100385.13;5058231;28;45365;-75
2023/03/17 06:40:31;;;;;;;;;2.00;2.00;;;;;22.17;36.70;100397.38;5057843;28;45987;-74
2023/03/17 06:42:57;;;;;;;;;3.75;3.75;;;;;22.11;36.63;100392.81;5057934;28;45277;-73
2023/03/17 06:45:22;;;;;;;;;3.00;3.00;;;;;22.18;37.24;100428.97;5057969;28;45474;-74
2023/03/17 06:47:47;;;;;;;;;4.00;3.00;;;;;22.19;37.04;100451.00;5057941;28;45303;-73
2023/03/17 06:50:14;;;;;;;;;3.33;2.00;;;;;22.11;37.19;100425.44;5056753;28;47002;-73
2023/03/17 06:52:39;;;;;;;;;2.00;2.00;;;;;22.18;37.39;100452.81;5057288;28;45408;-73
2023/03/17 06:55:07;;;;;;;;;1.00;0.00;;;;;22.13;37.28;100449.09;5055162;28;46050;-72
2023/03/17 06:57:33;;;;;;;;;2.67;2.67;;;;;22.21;37.27;100462.22;5047729;28;45512;-71
2023/03/17 06:59:58;;;;;;;;;6.50;3.75;;;;;22.21;36.98;100472.81;5057717;28;45338;-72
2023/03/17 07:02:23;;;;;;;;;5.75;3.25;;;;;22.06;37.31;100451.69;5058170;28;45420;-72
2023/03/17 07:04:49;;;;;;;;;2.00;2.00;;;;;22.20;37.30;100478.31;5057516;28;45385;-72
2023/03/17 07:07:15;;;;;;;;;3.00;2.67;;;;;22.20;36.93;100476.47;5048715;28;45493;-73
2023/03/17 07:09:40;;;;;;;;;4.00;3.00;;;;;22.07;37.35;100453.31;5052499;28;45395;-72
2023/03/17 07:12:07;;;;;;;;;3.00;1.00;;;;;22.18;37.42;100466.06;5045589;28;45504;-72
2023/03/17 07:14:34;;;;;;;;;4.33;3.00;;;;;22.17;36.94;100461.75;5057655;28;45403;-72
2023/03/17 07:17:00;;;;;;;;;2.00;2.00;;;;;22.16;37.21;100454.84;5056834;28;45422;-72
2023/03/17 07:19:26;;;;;;;;;3.00;2.33;;;;;22.14;37.09;100442.78;5056758;28;46102;-72
2023/03/17 07:21:54;;;;;;;;;2.67;2.33;;;;;22.15;37.23;100455.84;5057413;28;45385;-73
2023/03/17 07:24:20;;;;;;;;;3.00;3.00;;;;;22.14;37.49;100471.94;5057447;28;45314;-72
2023/03/17 07:26:45;;;;;;;;;3.00;3.00;;;;;22.09;37.21;100480.47;5057449;28;45332;-72
2023/03/17 07:29:11;;;;;;;;;2.00;2.00;;;;;22.13;37.17;100502.91;5057132;28;45971;-72
2023/03/17 07:31:37;;;;;;;;;2.33;2.33;;;;;22.13;37.53;100494.13;5057497;28;45338;-73
2023/03/17 07:34:03;;;;;;;;;3.00;3.00;;;;;22.12;37.46;100468.66;5056022;28;45449;-72
2023/03/17 07:36:29;;;;;;;;;4.67;3.00;;;;;22.12;37.50;100472.09;5057040;28;45348;-72
2023/03/17 07:38:54;;;;;;;;;2.33;2.33;;;;;22.11;37.08;100469.66;5056916;28;45375;-72
2023/03/17 07:41:20;;;;;;;;;2.67;2.33;;;;;22.09;37.64;100446.03;5057324;28;45325;-73
2023/03/17 07:43:46;;;;;;;;;4.00;2.67;;;;;22.11;37.65;100435.22;5057487;28;45361;-73
2023/03/17 07:46:12;;;;;;;;;3.25;3.00;;;;;22.10;37.49;100442.34;5056982;28;45455;-72
2023/03/17 07:48:40;;;;;;;;;2.67;2.67;;;;;22.09;37.10;100416.88;5056349;28;46257;-72
2023/03/17 07:51:10;;;;;;;;;2.33;2.33;;;;;22.06;37.21;100409.31;5056897;28;45444;-72
2023/03/17 07:53:35;;;;;;;;;3.33;3.00;;;;;22.06;37.66;100426.03;5056926;28;45279;-73
2023/03/17 07:56:00;;;;;;;;;3.00;3.00;;;;;22.10;37.27;100447.63;5056963;28;45337;-72
2023/03/17 07:58:26;;;;;;;;;4.33;2.67;;;;;22.06;37.07;100444.56;5025920;28;47282;-72
2023/03/17 08:00:51;;;;;;;;;3.75;3.00;;;;;22.03;37.58;100428.22;5055534;28;45412;-72
2023/03/17 08:03:18;;;;;;;;;2.33;2.33;;;;;22.13;37.31;100435.84;5056132;28;45292;-72
2023/03/17 08:05:43;;;;;;;;;2.00;2.00;;;;;22.13;37.30;100428.72;5054578;28;45336;-72
2023/03/17 08:08:09;;;;;;;;;2.33;2.00;;;;;22.14;37.12;100426.91;5043589;28;45286;-70
2023/03/17 08:10:34;;;;;;;;;4.00;2.67;;;;;22.04;37.48;100412.13;5056384;28;45242;-71
2023/03/17 08:13:00;;;;;;;;;4.33;2.00;;;;;22.16;37.07;100438.13;5056063;28;45431;-72
2023/03/17 08:15:26;;;;;;;;;3.75;2.25;;;;;22.15;37.45;100421.41;5056765;28;45289;-73
2023/03/17 08:17:52;;;;;;;;;3.25;3.25;;;;;22.16;36.94;100415.09;5055917;28;45351;-72
2023/03/17 08:20:18;;;;;;;;;3.00;3.00;;;;;22.16;36.87;100420.41;5056552;28;45375;-72
2023/03/17 08:22:43;;;;;;;;;2.75;2.75;;;;;22.17;37.47;100407.97;5056475;28;45409;-72
2023/03/17 08:25:10;;;;;;;;;3.75;2.50;;;;;22.16;37.45;100414.28;5056488;28;45262;-72
2023/03/17 08:27:35;;;;;;;;;6.00;2.50;;;;;22.18;37.11;100421.03;5054089;28;45660;-72
2023/03/17 08:30:01;;;;;;;;;1.50;1.50;;;;;22.19;37.29;100419.19;5055993;28;45475;-72
2023/03/17 08:32:27;;;;;;;;;3.67;2.00;;;;;22.21;37.08;100421.63;5055713;28;45397;-72
2023/03/17 08:34:54;;;;;;;;;3.00;3.00;;;;;22.21;37.07;100426.94;5055760;28;45396;-72
2023/03/17 08:37:21;;;;;;;;;2.75;2.00;;;;;22.22;37.21;100418.00;5051895;28;46240;-72
2023/03/17 08:39:46;;;;;;;;;2.33;2.33;;;;;22.22;37.45;100418.81;5046724;28;45345;-72
2023/03/17 08:42:12;;;;;;;;;4.00;3.00;;;;;22.23;36.95;100427.56;5052418;28;45419;-72
2023/03/17 08:44:37;;;;;;;;;2.75;2.75;;;;;22.23;37.38;100430.22;5055458;28;45428;-72
2023/03/17 08:47:03;;;;;;;;;2.00;2.00;;;;;22.21;37.53;100422.47;5055735;28;46023;-72
2023/03/17 08:49:29;;;;;;;;;2.00;2.00;;;;;22.22;37.45;100431.25;5055935;28;45312;-72
2023/03/17 08:51:55;;;;;;;;;6.00;2.67;;;;;22.13;37.18;100423.41;5055684;28;45518;-72
2023/03/17 08:54:20;;;;;;;;;1.67;1.67;;;;;22.23;37.26;100443.47;5056213;28;45357;-72
2023/03/17 08:56:46;;;;;;;;;2.00;1.00;;;;;22.24;36.98;100445.94;5054994;28;46704;-72
2023/03/17 08:59:11;;;;;;;;;0.00;0.00;;;;;22.26;37.62;100435.13;5055401;28;45547;-72
2023/03/17 09:01:38;;;;;;;;;5.00;2.00;;;;;22.28;37.45;100441.88;5055674;28;45416;-72
2023/03/17 09:04:04;;;;;;;;;6.00;2.67;;;;;22.28;37.62;100428.63;5046243;28;45442;-72
2023/03/17 09:06:30;;;;;;;;;2.00;2.00;;;;;22.28;37.56;100425.16;5048321;28;47135;-72
2023/03/17 09:08:55;;;;;;;;;2.00;2.00;;;;;22.27;37.46;100432.31;5044842;28;45733;-72
2023/03/17 09:11:26;;;;;;;;;0.00;0.00;;;;;22.31;37.53;100432.72;5055749;28;45446;-72
2023/03/17 09:13:53;;;;;;;;;1.67;1.67;;;;;22.30;37.66;100441.72;5055652;28;45380;-72
2023/03/17 09:16:19;;;;;;;;;2.33;1.67;;;;;22.31;37.13;100453.94;5054969;28;45966;-72
2023/03/17 09:18:45;;;;;;;;;2.67;2.67;;;;;22.34;37.50;100445.59;5055609;28;45325;-72
2023/03/17 09:21:13;;;;;;;;;3.00;3.00;;;;;22.34;37.26;100448.25;5055426;28;45262;-72
2023/03/17 09:23:38;;;;;;;;;2.00;2.00;;;;;22.36;37.12;100454.19;5045368;28;45361;-72
2023/03/17 09:26:04;;;;;;;;;4.33;2.67;;;;;22.37;37.53;100453.19;5051871;28;47442;-72
2023/03/17 09:28:29;;;;;;;;;3.33;3.00;;;;;22.38;37.57;100454.78;5055626;28;45435;-72
2023/03/17 09:31:00;;;;;;;;;3.00;2.00;;;;;22.37;37.64;100455.81;5054713;28;45368;-72
2023/03/17 09:33:26;;;;;;;;;3.00;3.00;;;;;22.40;37.64;100454.63;5055510;28;45491;-72
2023/03/17 09:35:53;;;;;;;;;3.00;3.00;;;;;22.39;36.97;100451.16;5054282;28;45455;-72
2023/03/17 09:38:18;;;;;;;;;3.00;2.67;;;;;22.41;37.47;100453.59;5054855;28;45359;-72
2023/03/17 09:40:52;;;;;;;;;2.00;2.00;;;;;22.42;37.23;100452.59;5055070;28;45398;-71
2023/03/17 09:43:35;;;;;;;;;3.00;2.33;;;;;22.43;37.02;100446.25;5054929;28;45571;-72
2023/03/17 09:46:17;;;;;;;;;3.00;3.00;;;;;22.44;37.13;100449.75;5041477;28;45428;-72
2023/03/17 09:49:26;;;;;;;;;3.67;3.67;;;;;22.33;37.24;100432.56;5054757;28;45498;-72
2023/03/17 09:51:52;;;;;;;;;4.00;2.67;;;;;22.45;37.62;100451.38;5036508;28;45464;-73
2023/03/17 09:54:33;;;;;;;;;2.00;2.00;;;;;22.45;37.69;100451.38;5054974;28;45516;-72
2023/03/17 09:57:28;;;;;;;;;2.67;2.00;;;;;22.47;37.31;100436.09;5044619;28;48424;-73
2023/03/17 10:00:13;;;;;;;;;2.00;1.67;;;;;22.47;37.02;100423.69;5046381;28;45731;-73
2023/03/17 10:02:40;;;;;;;;;2.00;2.00;;;;;22.40;37.50;100398.97;5054451;28;45408;-73
2023/03/17 10:05:20;;;;;;;;;2.50;2.50;;;;;22.20;37.13;100378.41;5054599;28;45426;-73
2023/03/17 10:08:13;;;;;;;;;2.33;2.33;;;;;22.48;36.99;100421.84;5041707;28;45430;-72
2023/03/17 10:10:48;;;;;;;;;3.00;3.00;;;;;22.48;37.54;100411.25;5045248;28;45307;-72
2023/03/17 10:13:13;;;;;;;;;2.00;2.00;;;;;22.49;37.49;100412.88;5054313;28;45316;-72
2023/03/17 10:15:49;;;;;;;;;2.00;2.00;;;;;22.50;37.14;100417.16;5054885;28;45292;-73
2023/03/17 10:18:17;;;;;;;;;3.00;2.00;;;;;22.51;37.60;100414.31;5054586;28;45976;-73
2023/03/17 10:20:53;;;;;;;;;4.67;3.67;;;;;22.52;37.05;100420.44;5046196;28;45543;-72
2023/03/17 10:23:23;;;;;;;;;1.00;1.00;;;;;22.44;37.45;100402.03;5042980;28;45314;-72
2023/03/17 10:25:48;;;;;;;;;2.67;2.67;;;;;22.54;37.13;100414.94;5054560;28;45495;-72
2023/03/17 10:28:26;;;;;;;;;3.00;3.00;;;;;22.54;37.26;100431.66;5054266;28;45917;-72
2023/03/17 10:30:52;;;;;;;;;1.67;1.67;;;;;22.55;37.23;100435.97;5054409;28;45459;-72
2023/03/17 10:33:19;;;;;;;;;3.33;2.00;;;;;22.53;37.15;100438.00;5036519;28;45479;-72
2023/03/17 10:35:44;;;;;;;;;2.00;2.00;;;;;22.56;37.33;100456.13;5053996;28;45384;-72
2023/03/17 10:38:19;;;;;;;;;2.00;2.00;;;;;22.57;37.08;100441.88;5054667;28;45320;-72
2023/03/17 10:40:53;;;;;;;;;2.00;2.00;;;;;22.57;37.13;100433.94;5036423;28;45490;-72
2023/03/17 10:43:21;;;;;;;;;2.00;2.00;;;;;22.51;37.46;100424.91;5054004;28;45344;-71
2023/03/17 10:46:22;;;;;;;;;2.33;2.33;;;;;22.57;37.61;100425.16;5054749;28;45461;-72
2023/03/17 10:48:53;;;;;;;;;3.00;2.00;;;;;22.57;37.10;100431.28;5054266;28;47245;-72
2023/03/17 10:51:29;;;;;;;;;3.00;2.00;;;;;22.59;37.55;100433.72;5054925;28;45361;-72
2023/03/17 10:53:58;;;;;;;;;5.00;3.33;;;;;22.58;37.04;100442.72;5057757;28;45456;-72
2023/03/17 10:56:26;;;;;;;;;3.00;2.00;;;;;22.59;37.43;100437.19;5057810;28;45282;-70
2023/03/17 10:58:54;;;;;;;;;2.00;2.00;;;;;22.60;37.17;100435.38;5057529;28;45358;-72
2023/03/17 11:01:37;;;;;;;;;2.33;2.33;;;;;22.58;37.59;100435.59;5057679;28;45439;-72
2023/03/17 11:04:28;;;;;;;;;4.00;2.33;;;;;22.54;37.04;100436.13;5057809;28;45389;-72
2023/03/17 11:06:56;;;;;;;;;2.00;2.00;;;;;22.57;37.48;100430.47;5051093;28;45404;-72
2023/03/17 11:09:22;;;;;;;;;2.00;2.00;;;;;22.49;36.93;100416.34;5050606;28;46188;-72
2023/03/17 11:11:57;;;;;;;;;2.00;2.00;;;;;22.60;37.25;100427.41;5056844;28;45302;-72
2023/03/17 11:14:27;;;;;;;;;4.33;2.00;;;;;22.58;37.38;100427.63;5057382;28;45325;-72
2023/03/17 11:17:16;;;;;;;;;1.00;1.00;;;;;22.49;36.93;100404.91;5057578;28;45447;-72
2023/03/17 11:20:01;;;;;;;;;2.67;2.67;;;;;22.57;37.03;100407.41;5057667;28;46258;-72
2023/03/17 11:22:55;;;;;;;;;1.67;1.33;;;;;22.56;37.68;100408.41;5057345;28;45453;-72
2023/03/17 11:25:22;;;;;;;;;2.33;1.33;;;;;22.45;37.54;100390.41;5057312;28;45450;-72
2023/03/17 11:28:15;;;;;;;;;2.67;2.67;;;;;22.56;37.48;100416.38;5057268;28;45372;-72